createdAt,value
2022-09-23T00:01:53.200Z,101449.28
2022-09-23T00:04:18.911Z,101439.03
2022-09-23T00:06:44.495Z,101446.22
2022-09-23T00:09:10.033Z,101451.75
2022-09-23T00:11:35.581Z,101447.34
2022-09-23T00:14:01.127Z,101450.91
2022-09-23T00:16:28.009Z,101457.28
2022-09-23T00:18:53.641Z,101450.91
2022-09-23T00:21:19.476Z,101446.50
2022-09-23T00:23:45.023Z,101452.03
2022-09-23T00:26:11.544Z,101437.09
2022-09-23T00:28:37.567Z,101438.19
2022-09-23T00:31:03.987Z,101440.69
2022-09-23T00:33:29.560Z,101439.84
2022-09-23T00:35:58.988Z,101434.31
2022-09-23T00:38:24.533Z,101432.66
2022-09-23T00:40:50.113Z,101437.09
2022-09-23T00:43:16.450Z,101439.56
2022-09-23T00:45:42.488Z,101430.16
2022-09-23T00:48:08.303Z,101433.50
2022-09-23T00:50:35.136Z,101429.91
2022-09-23T00:53:00.980Z,101426.00
2022-09-23T00:55:28.171Z,101425.72
2022-09-23T00:57:54.097Z,101426.00
2022-09-23T01:00:19.657Z,101422.41
2022-09-23T01:02:45.876Z,101421.28
2022-09-23T01:05:11.573Z,101416.06
2022-09-23T01:07:37.119Z,101429.91
2022-09-23T01:10:02.714Z,101420.72
2022-09-23T01:12:36.114Z,101421.59
2022-09-23T01:15:05.440Z,101414.09
2022-09-23T01:17:35.259Z,101419.66
2022-09-23T01:20:20.681Z,101418.81
2022-09-23T01:23:06.112Z,101417.97
2022-09-23T01:25:42.944Z,101415.19
2022-09-23T01:28:17.083Z,101419.06
2022-09-23T01:31:00.782Z,101411.59
2022-09-23T01:33:30.979Z,101411.06
2022-09-23T01:36:18.164Z,101410.25
2022-09-23T01:39:03.641Z,101406.34
2022-09-23T01:41:33.512Z,101402.47
2022-09-23T01:44:17.604Z,101399.69
2022-09-23T01:46:46.471Z,101395.28
2022-09-23T01:49:14.651Z,101398.88
2022-09-23T01:51:41.988Z,101401.66
2022-09-23T01:54:09.746Z,101401.66
2022-09-23T01:56:37.899Z,101403.59
2022-09-23T02:01:46.807Z,101399.69
2022-09-23T02:04:14.605Z,101388.38
2022-09-23T02:06:41.659Z,101387.50
2022-09-23T02:09:08.484Z,101390.56
2022-09-23T02:11:35.488Z,101382.25
2022-09-23T02:14:03.743Z,101383.91
2022-09-23T02:16:31.255Z,101385.03
2022-09-23T02:19:12.996Z,101374.78
2022-09-23T02:21:40.296Z,101381.97
2022-09-23T02:24:08.310Z,101384.22
2022-09-23T02:26:34.939Z,101379.78
2022-09-23T02:29:04.371Z,101372.56
2022-09-23T02:31:32.837Z,101373.97
2022-09-23T02:34:01.028Z,101377.84
2022-09-23T02:36:30.675Z,101377.03
2022-09-23T02:38:57.064Z,101377.84
2022-09-23T02:41:42.488Z,101366.78
2022-09-23T02:44:08.518Z,101367.03
2022-09-23T02:46:34.108Z,101360.41
2022-09-23T02:49:00.531Z,101369.53
2022-09-23T02:51:27.947Z,101367.91
2022-09-23T02:53:55.487Z,101365.13
2022-09-23T02:56:21.169Z,101362.06
2022-09-23T02:58:47.859Z,101362.34
2022-09-23T03:01:25.449Z,101359.28
2022-09-23T03:03:56.282Z,101350.16
2022-09-23T03:06:26.887Z,101356.81
2022-09-23T03:08:56.792Z,101355.69
2022-09-23T03:11:23.873Z,101350.16
2022-09-23T03:14:16.092Z,101352.94
2022-09-23T03:16:43.849Z,101348.22
2022-09-23T03:19:15.783Z,101336.31
2022-09-23T03:21:44.351Z,101340.22
2022-09-23T03:24:10.003Z,101339.09
2022-09-23T03:26:35.922Z,101336.31
2022-09-23T03:29:02.085Z,101336.31
2022-09-23T03:31:28.871Z,101340.22
2022-09-23T03:33:55.132Z,101348.22
2022-09-23T03:36:41.867Z,101342.13
2022-09-23T03:39:09.704Z,101341.03
2022-09-23T03:41:38.003Z,101339.91
2022-09-23T03:44:03.543Z,101342.69
2022-09-23T03:46:29.352Z,101337.44
2022-09-23T03:48:56.753Z,101335.50
2022-09-23T03:51:23.028Z,101341.28
2022-09-23T03:53:49.227Z,101342.13
2022-09-23T03:56:14.782Z,101332.16
2022-09-23T03:58:40.330Z,101334.69
2022-09-23T04:01:05.968Z,101329.13
2022-09-23T04:03:31.552Z,101316.94
2022-09-23T04:05:57.105Z,101318.06
2022-09-23T04:08:22.784Z,101318.06
2022-09-23T04:10:52.897Z,101305.31
2022-09-23T04:13:20.252Z,101308.09
2022-09-23T04:15:48.793Z,101306.44
2022-09-23T04:18:14.340Z,101305.59
2022-09-23T04:20:39.881Z,101303.38
2022-09-23T04:23:05.437Z,101310.31
2022-09-23T04:25:31.272Z,101301.72
2022-09-23T04:27:56.825Z,101305.31
2022-09-23T04:30:22.366Z,101300.59
2022-09-23T04:32:47.917Z,101303.38
2022-09-23T04:35:13.654Z,101292.28
2022-09-23T04:37:39.203Z,101293.97
2022-09-23T04:40:04.982Z,101289.81
2022-09-23T04:42:30.597Z,101287.06
2022-09-23T04:44:57.052Z,101282.63
2022-09-23T04:47:22.600Z,101288.19
2022-09-23T04:49:48.159Z,101285.94
2022-09-23T04:52:13.703Z,101285.94
2022-09-23T04:54:40.026Z,101285.66
2022-09-23T04:57:05.580Z,101282.91
2022-09-23T04:59:31.125Z,101282.06
2022-09-23T05:01:56.700Z,101282.06
2022-09-23T05:04:22.256Z,101285.09
2022-09-23T05:06:48.420Z,101290.38
2022-09-23T05:09:15.475Z,101284.59
2022-09-23T05:11:41.016Z,101285.09
2022-09-23T05:14:06.563Z,101277.72
2022-09-23T05:16:32.231Z,101286.41
2022-09-23T05:18:58.598Z,101280.88
2022-09-23T05:21:26.088Z,101286.34
2022-09-23T05:23:54.274Z,101297.16
2022-09-23T05:26:20.435Z,101295.50
2022-09-23T05:28:45.972Z,101294.66
2022-09-23T05:31:19.665Z,101298.56
2022-09-23T05:33:47.954Z,101306.84
2022-09-23T05:36:13.781Z,101301.06
2022-09-23T05:38:39.521Z,101296.63
2022-09-23T05:41:06.400Z,101296.59
2022-09-23T05:43:31.976Z,101300.78
2022-09-23T05:46:02.279Z,101296.88
2022-09-23T05:48:30.772Z,101292.47
2022-09-23T05:50:56.307Z,101296.03
2022-09-23T05:53:22.048Z,101293.00
2022-09-23T05:55:47.583Z,101294.13
2022-09-23T05:58:13.256Z,101299.38
2022-09-23T06:00:39.724Z,101305.72
2022-09-23T06:03:05.630Z,101302.44
2022-09-23T06:05:31.178Z,101301.06
2022-09-23T06:07:57.564Z,101293.84
2022-09-23T06:10:23.097Z,101300.50
2022-09-23T06:12:49.235Z,101305.47
2022-09-23T06:15:14.866Z,101300.75
2022-09-23T06:17:40.418Z,101299.34
2022-09-23T06:20:06.190Z,101302.72
2022-09-23T06:22:32.717Z,101304.34
2022-09-23T06:24:59.742Z,101296.34
2022-09-23T06:27:25.287Z,101296.34
2022-09-23T06:29:51.576Z,101293.56
2022-09-23T06:32:17.525Z,101293.84
2022-09-23T06:34:51.671Z,101293.56
2022-09-23T06:37:20.490Z,101310.94
2022-09-23T06:39:46.289Z,101303.50
2022-09-23T06:42:12.690Z,101308.44
2022-09-23T06:44:38.232Z,101303.78
2022-09-23T06:47:03.832Z,101304.66
2022-09-23T06:49:30.649Z,101305.19
2022-09-23T06:51:56.202Z,101301.06
2022-09-23T06:54:21.755Z,101310.16
2022-09-23T06:56:47.305Z,101301.03
2022-09-23T06:59:16.079Z,101304.06
2022-09-23T07:01:42.208Z,101299.13
2022-09-23T07:04:08.815Z,101297.72
2022-09-23T07:06:34.475Z,101296.03
2022-09-23T07:09:00.194Z,101299.34
2022-09-23T07:11:26.199Z,101297.41
2022-09-23T07:13:51.743Z,101302.09
2022-09-23T07:16:17.426Z,101307.34
2022-09-23T07:18:44.237Z,101307.06
2022-09-23T07:21:14.146Z,101301.25
2022-09-23T07:23:40.731Z,101305.97
2022-09-23T07:26:07.196Z,101303.72
2022-09-23T07:28:32.845Z,101307.59
2022-09-23T07:31:02.231Z,101310.94
2022-09-23T07:33:33.106Z,101311.19
2022-09-23T07:35:59.217Z,101304.28
2022-09-23T07:38:29.073Z,101310.34
2022-09-23T07:40:59.396Z,101305.94
2022-09-23T07:43:27.459Z,101310.91
2022-09-23T07:45:53.672Z,101303.72
2022-09-23T07:48:19.477Z,101303.72
2022-09-23T07:50:45.021Z,101303.44
2022-09-23T07:53:11.281Z,101305.91
2022-09-23T07:55:36.826Z,101306.22
2022-09-23T07:58:02.383Z,101308.41
2022-09-23T08:00:27.922Z,101307.59
2022-09-23T08:02:53.601Z,101305.66
2022-09-23T08:05:19.159Z,101300.94
2022-09-23T08:07:44.795Z,101306.19
2022-09-23T08:10:10.346Z,101309.78
2022-09-23T08:12:35.901Z,101316.44
2022-09-23T08:15:02.206Z,101312.28
2022-09-23T08:17:27.754Z,101304.81
2022-09-23T08:19:53.300Z,101306.75
2022-09-23T08:22:20.029Z,101304.25
2022-09-23T08:24:45.586Z,101306.75
2022-09-23T08:27:11.873Z,101300.63
2022-09-23T08:29:37.418Z,101302.56
2022-09-23T08:32:02.973Z,101300.91
2022-09-23T08:34:28.522Z,101299.81
2022-09-23T08:36:54.070Z,101299.53
2022-09-23T08:39:19.734Z,101292.06
2022-09-23T08:41:58.812Z,101288.72
2022-09-23T08:44:42.661Z,101295.66
2022-09-23T08:49:56.504Z,101304.22
2022-09-23T08:52:26.451Z,101294.84
2022-09-23T08:54:55.489Z,101295.38
2022-09-23T08:57:29.521Z,101301.19
2022-09-23T08:59:55.057Z,101303.41
2022-09-23T09:02:21.055Z,101310.59
2022-09-23T09:04:47.618Z,101301.19
2022-09-23T09:10:17.818Z,101290.94
2022-09-23T09:12:44.452Z,101294.53
2022-09-23T09:15:26.451Z,101288.19
2022-09-23T09:18:11.982Z,101299.25
2022-09-23T09:20:50.891Z,101294.25
2022-09-23T09:23:33.511Z,101293.72
2022-09-23T09:26:00.638Z,101294.25
2022-09-23T09:28:30.181Z,101296.19
2022-09-23T09:30:56.672Z,101282.06
2022-09-23T09:33:24.745Z,101282.63
2022-09-23T09:36:00.527Z,101277.38
2022-09-23T09:38:26.396Z,101272.09
2022-09-23T09:40:51.983Z,101276.50
2022-09-23T09:43:22.559Z,101266.28
2022-09-23T09:46:08.382Z,101269.34
2022-09-23T09:48:37.822Z,101263.78
2022-09-23T09:51:20.631Z,101268.19
2022-09-23T09:53:46.284Z,101260.69
2022-09-23T09:56:12.732Z,101263.75
2022-09-23T09:58:48.175Z,101266.78
2022-09-23T10:01:17.784Z,101261.88
2022-09-23T10:03:43.351Z,101251.88
2022-09-23T10:06:13.194Z,101254.63
2022-09-23T10:08:38.787Z,101258.22
2022-09-23T10:11:06.121Z,101254.63
2022-09-23T10:13:31.783Z,101256.56
2022-09-23T10:15:57.670Z,101263.75
2022-09-23T10:18:28.996Z,101255.47
2022-09-23T10:21:02.092Z,101252.41
2022-09-23T10:23:27.770Z,101257.94
2022-09-23T10:26:01.500Z,101259.88
2022-09-23T10:28:31.582Z,101263.75
2022-09-23T10:31:05.373Z,101257.41
2022-09-23T10:33:31.038Z,101250.19
2022-09-23T10:35:56.652Z,101257.94
2022-09-23T10:38:22.207Z,101247.13
2022-09-23T10:46:39.368Z,101248.78
2022-09-23T10:49:24.944Z,101239.13
2022-09-23T10:51:56.418Z,101239.13
2022-09-23T10:54:41.848Z,101238.81
2022-09-23T10:57:34.985Z,101229.69
2022-09-23T11:00:08.081Z,101238.53
2022-09-23T11:02:42.385Z,101230.50
2022-09-23T11:05:27.836Z,101229.69
2022-09-23T11:07:58.730Z,101233.28
2022-09-23T11:10:46.558Z,101231.63
2022-09-23T11:13:17.527Z,101231.28
2022-09-23T11:15:48.583Z,101229.66
2022-09-23T11:18:34.006Z,101227.72
2022-09-23T11:21:05.930Z,101223.56
2022-09-23T11:23:36.266Z,101218.88
2022-09-23T11:26:12.875Z,101208.63
2022-09-23T11:28:50.146Z,101208.88
2022-09-23T11:31:36.221Z,101208.88
2022-09-23T11:34:21.807Z,101209.38
2022-09-23T11:36:50.214Z,101197.75
2022-09-23T11:39:18.474Z,101203.56
2022-09-23T11:41:44.022Z,101202.75
2022-09-23T11:46:57.503Z,101187.81
2022-09-23T11:49:26.594Z,101182.22
2022-09-23T11:52:12.165Z,101189.72
2022-09-23T11:54:57.659Z,101185.56
2022-09-23T11:57:36.742Z,101185.03
2022-09-23T12:00:12.143Z,101183.78
2022-09-23T12:05:32.623Z,101175.09
2022-09-23T12:08:18.218Z,101178.41
2022-09-23T12:10:51.727Z,101170.38
2022-09-23T12:13:23.610Z,101172.88
2022-09-23T12:16:09.155Z,101169.84
2022-09-23T12:18:45.282Z,101160.44
2022-09-23T12:21:33.051Z,101166.78
2022-09-23T12:24:04.869Z,101164.03
2022-09-23T12:26:30.429Z,101168.22
2022-09-23T12:28:59.241Z,101162.34
2022-09-23T12:31:29.763Z,101163.72
2022-09-23T12:33:55.798Z,101162.06
2022-09-23T12:36:26.106Z,101157.97
2022-09-23T12:38:52.551Z,101156.56
2022-09-23T12:41:38.031Z,101157.13
2022-09-23T12:44:13.472Z,101154.38
2022-09-23T12:46:39.494Z,101155.41
2022-09-23T12:49:07.751Z,101159.56
2022-09-23T12:51:34.069Z,101160.69
2022-09-23T12:54:06.069Z,101156.50
2022-09-23T13:01:52.681Z,101156.00
2022-09-23T13:04:58.188Z,101160.13
2022-09-23T13:07:25.351Z,101154.03
2022-09-23T13:09:51.724Z,101149.31
2022-09-23T13:12:33.860Z,101151.56
2022-09-23T13:15:02.600Z,101148.19
2022-09-23T13:17:36.217Z,101138.22
2022-09-23T13:22:59.183Z,101139.66
2022-09-23T13:25:25.693Z,101138.53
2022-09-23T13:27:52.802Z,101142.13
2022-09-23T13:30:23.664Z,101142.66
2022-09-23T13:32:58.859Z,101132.66
2022-09-23T13:35:26.373Z,101139.63
2022-09-23T13:37:52.047Z,101136.59
2022-09-23T13:40:22.916Z,101126.88
2022-09-23T13:42:54.217Z,101131.31
2022-09-23T13:45:20.435Z,101128.53
2022-09-23T13:47:46.119Z,101133.25
2022-09-23T13:50:16.070Z,101128.78
2022-09-23T13:52:41.611Z,101128.19
2022-09-23T13:55:22.465Z,101137.06
2022-09-23T13:57:48.007Z,101135.09
2022-09-23T14:00:17.670Z,101122.09
2022-09-23T14:02:43.415Z,101120.97
2022-09-23T14:05:11.642Z,101120.69
2022-09-23T14:07:37.179Z,101119.63
2022-09-23T14:10:04.364Z,101115.16
2022-09-23T14:12:29.905Z,101105.50
2022-09-23T14:14:56.338Z,101101.88
2022-09-23T14:17:22.924Z,101103.00
2022-09-23T14:19:48.647Z,101097.78
2022-09-23T14:22:29.196Z,101100.03
2022-09-23T14:24:55.108Z,101098.13
2022-09-23T14:27:26.572Z,101097.25
2022-09-23T14:29:52.120Z,101098.94
2022-09-23T14:32:20.158Z,101095.88
2022-09-23T14:34:47.482Z,101089.81
2022-09-23T14:37:52.921Z,101091.47
2022-09-23T14:40:19.738Z,101087.88
2022-09-23T14:42:46.142Z,101082.59
2022-09-23T14:45:16.022Z,101082.59
2022-09-23T14:47:42.705Z,101083.72
2022-09-23T14:50:33.675Z,101077.88
2022-09-23T14:52:59.213Z,101079.84
2022-09-23T14:55:26.737Z,101079.84
2022-09-23T14:57:59.127Z,101069.31
2022-09-23T15:00:24.979Z,101072.91
2022-09-23T15:02:58.543Z,101062.13
2022-09-23T15:05:40.324Z,101064.66
2022-09-23T15:08:05.899Z,101062.41
2022-09-23T15:10:32.410Z,101063.81
2022-09-23T15:13:03.695Z,101055.22
2022-09-23T15:15:29.251Z,101061.06
2022-09-23T15:17:54.828Z,101059.09
2022-09-23T15:20:22.024Z,101061.56
2022-09-23T15:22:49.846Z,101059.34
2022-09-23T15:25:17.579Z,101054.09
2022-09-23T15:27:54.426Z,101055.50
2022-09-23T15:30:20.137Z,101053.56
2022-09-23T15:32:45.815Z,101057.16
2022-09-23T15:35:14.814Z,101055.22
2022-09-23T15:37:41.161Z,101052.97
2022-09-23T15:40:11.096Z,101053.25
2022-09-23T15:42:37.578Z,101056.84
2022-09-23T15:45:03.377Z,101053.56
2022-09-23T15:47:28.919Z,101055.78
2022-09-23T15:49:54.473Z,101055.50
2022-09-23T15:52:21.243Z,101045.84
2022-09-23T15:54:46.789Z,101053.31
2022-09-23T15:57:12.330Z,101046.66
2022-09-23T15:59:37.886Z,101049.44
2022-09-23T16:02:06.976Z,101053.56
2022-09-23T16:04:32.559Z,101055.50
2022-09-23T16:06:58.174Z,101059.09
2022-09-23T16:09:23.900Z,101065.22
2022-09-23T16:11:50.354Z,101050.56
2022-09-23T16:14:16.305Z,101056.59
2022-09-23T16:16:44.021Z,101060.22
2022-09-23T16:19:10.452Z,101057.72
2022-09-23T16:21:36.025Z,101051.06
2022-09-23T16:24:01.609Z,101050.25
2022-09-23T16:26:28.805Z,101052.19
2022-09-23T16:28:54.962Z,101047.78
2022-09-23T16:31:21.255Z,101051.66
2022-09-23T16:33:47.489Z,101045.84
2022-09-23T16:36:30.260Z,101049.97
2022-09-23T16:38:56.068Z,101042.25
2022-09-23T16:41:22.654Z,101046.97
2022-09-23T16:43:49.602Z,101051.38
2022-09-23T16:46:15.806Z,101039.47
2022-09-23T16:48:41.528Z,101048.91
2022-09-23T16:51:07.355Z,101047.78
2022-09-23T16:53:34.059Z,101052.50
2022-09-23T16:56:08.737Z,101054.44
2022-09-23T16:58:35.744Z,101049.72
2022-09-23T17:01:21.219Z,101046.13
2022-09-23T17:03:47.001Z,101052.50
2022-09-23T17:06:12.968Z,101046.13
2022-09-23T17:08:39.955Z,101045.59
2022-09-23T17:11:05.562Z,101044.19
2022-09-23T17:13:31.624Z,101047.22
2022-09-23T17:15:57.310Z,101043.38
2022-09-23T17:18:22.881Z,101050.00
2022-09-23T17:20:56.287Z,101045.31
2022-09-23T17:23:21.830Z,101041.69
2022-09-23T17:25:47.633Z,101037.81
2022-09-23T17:28:13.180Z,101038.66
2022-09-23T17:30:39.807Z,101032.56
2022-09-23T17:33:05.429Z,101034.25
2022-09-23T17:35:30.973Z,101033.38
2022-09-23T17:37:56.512Z,101023.16
2022-09-23T17:40:25.252Z,101025.94
2022-09-23T17:42:52.414Z,101027.03
2022-09-23T17:45:18.153Z,101027.84
2022-09-23T17:47:50.323Z,101029.78
2022-09-23T17:50:16.171Z,101037.28
2022-09-23T17:52:41.718Z,101030.91
2022-09-23T17:55:07.635Z,101035.34
2022-09-23T17:57:33.174Z,101040.88
2022-09-23T17:59:58.726Z,101034.50
2022-09-23T18:02:24.302Z,101028.69
2022-09-23T18:04:49.900Z,101027.84
2022-09-23T18:07:15.443Z,101028.16
2022-09-23T18:09:40.995Z,101028.44
2022-09-23T18:12:06.534Z,101022.31
2022-09-23T18:14:32.098Z,101015.94
2022-09-23T18:16:57.635Z,101021.50
2022-09-23T18:19:23.879Z,101025.69
2022-09-23T18:21:50.264Z,101024.25
2022-09-23T18:24:33.146Z,101021.78
2022-09-23T18:26:59.267Z,101028.97
2022-09-23T18:29:24.981Z,101030.09
2022-09-23T18:31:50.651Z,101026.50
2022-09-23T18:34:16.396Z,101032.56
2022-09-23T18:36:42.133Z,101033.16
2022-09-23T18:39:07.686Z,101031.22
2022-09-23T18:41:33.361Z,101026.19
2022-09-23T18:43:58.910Z,101028.97
2022-09-23T18:46:25.569Z,101039.53
2022-09-23T18:49:11.201Z,101042.28
2022-09-23T18:51:37.790Z,101040.66
2022-09-23T18:54:04.593Z,101036.75
2022-09-23T18:56:36.306Z,101044.75
2022-09-23T18:59:04.356Z,101036.19
2022-09-23T19:01:30.014Z,101035.63
2022-09-23T19:03:56.014Z,101043.13
2022-09-23T19:06:21.644Z,101044.22
2022-09-23T19:08:48.665Z,101044.22
2022-09-23T19:11:14.937Z,101039.78
2022-09-23T19:13:40.480Z,101034.81
2022-09-23T19:16:09.691Z,101043.13
2022-09-23T19:18:36.285Z,101042.28
2022-09-23T19:21:06.297Z,101039.53
2022-09-23T19:23:33.988Z,101045.06
2022-09-23T19:26:07.949Z,101043.41
2022-09-23T19:28:33.497Z,101038.69
2022-09-23T19:31:07.843Z,101033.16
2022-09-23T19:33:33.417Z,101037.56
2022-09-23T19:35:58.951Z,101043.41
2022-09-23T19:38:25.469Z,101042.56
2022-09-23T19:40:51.294Z,101029.56
2022-09-23T19:43:16.960Z,101034.00
2022-09-23T19:45:43.493Z,101035.09
2022-09-23T19:48:09.482Z,101035.09
2022-09-23T19:50:38.475Z,101028.72
2022-09-23T19:53:04.803Z,101024.84
2022-09-23T19:55:32.112Z,101022.09
2022-09-23T19:57:57.654Z,101025.69
2022-09-23T20:00:23.250Z,101011.84
2022-09-23T20:02:48.933Z,101008.25
2022-09-23T20:05:18.427Z,101004.66
2022-09-23T20:07:45.829Z,101006.06
2022-09-23T20:10:11.769Z,101002.72
2022-09-23T20:12:37.318Z,101003.53
2022-09-23T20:15:04.717Z,101001.03
2022-09-23T20:17:30.714Z,101004.66
2022-09-23T20:19:56.383Z,101001.59
2022-09-23T20:22:27.528Z,101000.78
2022-09-23T20:24:56.456Z,101000.22
2022-09-23T20:27:22.526Z,101007.44
2022-09-23T20:29:48.101Z,101003.81
2022-09-23T20:32:13.825Z,101002.97
2022-09-23T20:34:43.273Z,101012.09
2022-09-23T20:37:09.976Z,101010.47
2022-09-23T20:39:35.541Z,101003.81
2022-09-23T20:42:01.882Z,101006.56
2022-09-23T20:44:27.435Z,101005.47
2022-09-23T20:46:53.061Z,101001.88
2022-09-23T20:49:19.905Z,100997.75
2022-09-23T20:51:47.100Z,100998.28
2022-09-23T20:54:12.642Z,100994.69
2022-09-23T20:56:38.279Z,100992.72
2022-09-23T20:59:03.824Z,100985.56
2022-09-23T21:01:31.631Z,100988.31
2022-09-23T21:03:57.175Z,100985.56
2022-09-23T21:06:25.311Z,100984.72
2022-09-23T21:08:52.473Z,100982.25
2022-09-23T21:11:18.010Z,100983.91
2022-09-23T21:13:46.275Z,100984.44
2022-09-23T21:16:11.885Z,100984.44
2022-09-23T21:18:37.743Z,100986.38
2022-09-23T21:21:03.669Z,100985.03
2022-09-23T21:23:29.901Z,100983.09
2022-09-23T21:25:59.048Z,100982.78
2022-09-23T21:28:24.598Z,100976.72
2022-09-23T21:30:52.057Z,100985.03
2022-09-23T21:33:17.750Z,100977.56
2022-09-23T21:35:43.472Z,100977.56
2022-09-23T21:38:09.013Z,100981.97
2022-09-23T21:40:54.517Z,100980.31
2022-09-23T21:43:20.113Z,100983.34
2022-09-23T21:45:46.433Z,100981.44
2022-09-23T21:48:12.014Z,100979.78
2022-09-23T21:50:39.936Z,100973.97
2022-09-23T21:53:06.432Z,100983.09
2022-09-23T21:55:31.985Z,100985.84
2022-09-23T21:57:57.651Z,100982.25
2022-09-23T22:00:23.205Z,100985.31
2022-09-23T22:02:48.747Z,100988.63
2022-09-23T22:05:14.295Z,100985.84
2022-09-23T22:07:39.838Z,100986.97
2022-09-23T22:10:05.655Z,100992.22
2022-09-23T22:12:31.496Z,100999.97
2022-09-23T22:14:57.052Z,100993.59
2022-09-23T22:17:22.881Z,100993.59
2022-09-23T22:19:48.463Z,100985.31
2022-09-23T22:22:14.940Z,100990.56
2022-09-23T22:24:40.790Z,100981.72
2022-09-23T22:27:06.714Z,100982.53
2022-09-23T22:29:52.163Z,100987.25
2022-09-23T22:32:37.679Z,100997.19
2022-09-23T22:35:03.424Z,100991.38
2022-09-23T22:37:29.626Z,100993.34
2022-09-23T22:39:55.180Z,100994.16
2022-09-23T22:42:21.419Z,100993.34
2022-09-23T22:44:47.232Z,100991.66
2022-09-23T22:47:12.781Z,100993.34
2022-09-23T22:49:38.336Z,100995.56
2022-09-23T22:52:08.273Z,100993.59
2022-09-23T22:54:34.376Z,100992.78
2022-09-23T22:57:02.304Z,100994.44
2022-09-23T22:59:27.856Z,100989.19
2022-09-23T23:01:53.557Z,100985.59
2022-09-23T23:04:19.174Z,100977.31
2022-09-23T23:06:44.859Z,100986.44
2022-09-23T23:09:14.772Z,100986.44
2022-09-23T23:11:41.333Z,100978.94
2022-09-23T23:14:07.535Z,100982.53
2022-09-23T23:16:34.728Z,100985.31
2022-09-23T23:19:03.387Z,100977.31
2022-09-23T23:21:28.955Z,100967.88
2022-09-23T23:23:54.503Z,100968.69
2022-09-23T23:26:21.320Z,100965.09
2022-09-23T23:28:47.070Z,100966.22
2022-09-23T23:31:13.311Z,100961.81
2022-09-23T23:33:38.942Z,100963.47
2022-09-23T23:36:04.855Z,100962.63
2022-09-23T23:38:30.393Z,100960.69
2022-09-23T23:40:55.993Z,100964.28
2022-09-23T23:43:22.526Z,100966.22
2022-09-23T23:45:50.687Z,100962.63
2022-09-23T23:48:17.367Z,100960.13
2022-09-23T23:50:43.638Z,100956.28
2022-09-23T23:53:11.068Z,100948.78
2022-09-23T23:55:37.145Z,100950.75
2022-09-23T23:58:02.864Z,100953.22
